sensor_id;sensor_type;location;lat;lon;timestamp;temperature;humidity
32187;DHT22;18686;53.084;8.872;2023-07-13T00:01:09;14.80;99.90
32187;DHT22;18686;53.084;8.872;2023-07-13T00:03:38;14.80;99.90
32187;DHT22;18686;53.084;8.872;2023-07-13T00:06:08;14.80;99.90
32187;DHT22;18686;53.084;8.872;2023-07-13T00:08:38;14.80;99.90
32187;DHT22;18686;53.084;8.872;2023-07-13T00:11:06;14.70;99.90
32187;DHT22;18686;53.084;8.872;2023-07-13T00:13:35;14.70;99.90
32187;DHT22;18686;53.084;8.872;2023-07-13T00:16:05;14.70;99.90
32187;DHT22;18686;53.084;8.872;2023-07-13T00:18:34;14.80;99.90
32187;DHT22;18686;53.084;8.872;2023-07-13T00:21:02;14.70;99.90
32187;DHT22;18686;53.084;8.872;2023-07-13T00:23:33;14.70;99.90
32187;DHT22;18686;53.084;8.872;2023-07-13T00:26:04;14.70;99.90
32187;DHT22;18686;53.084;8.872;2023-07-13T00:28:33;14.70;99.90
32187;DHT22;18686;53.084;8.872;2023-07-13T00:31:01;14.60;99.90
32187;DHT22;18686;53.084;8.872;2023-07-13T00:33:32;14.70;99.90
32187;DHT22;18686;53.084;8.872;2023-07-13T00:36:01;14.60;99.90
32187;DHT22;18686;53.084;8.872;2023-07-13T00:38:29;14.60;99.90
32187;DHT22;18686;53.084;8.872;2023-07-13T00:40:58;14.60;99.90
32187;DHT22;18686;53.084;8.872;2023-07-13T00:43:28;14.60;99.90
32187;DHT22;18686;53.084;8.872;2023-07-13T00:46:20;14.60;99.90
32187;DHT22;18686;53.084;8.872;2023-07-13T00:48:50;14.50;99.90
32187;DHT22;18686;53.084;8.872;2023-07-13T00:51:22;14.50;99.90
32187;DHT22;18686;53.084;8.872;2023-07-13T00:53:54;14.50;99.90
32187;DHT22;18686;53.084;8.872;2023-07-13T00:56:24;14.50;99.90
32187;DHT22;18686;53.084;8.872;2023-07-13T00:58:55;14.50;99.90
32187;DHT22;18686;53.084;8.872;2023-07-13T01:01:23;14.50;99.90
32187;DHT22;18686;53.084;8.872;2023-07-13T01:03:52;14.50;99.90
32187;DHT22;18686;53.084;8.872;2023-07-13T01:06:21;14.50;99.90
32187;DHT22;18686;53.084;8.872;2023-07-13T01:08:49;14.50;99.90
32187;DHT22;18686;53.084;8.872;2023-07-13T01:11:19;14.50;99.90
32187;DHT22;18686;53.084;8.872;2023-07-13T01:13:49;14.50;99.90
32187;DHT22;18686;53.084;8.872;2023-07-13T01:16:25;14.50;99.90
32187;DHT22;18686;53.084;8.872;2023-07-13T01:18:55;14.50;99.90
32187;DHT22;18686;53.084;8.872;2023-07-13T01:21:27;14.50;99.90
32187;DHT22;18686;53.084;8.872;2023-07-13T01:23:58;14.40;99.90
32187;DHT22;18686;53.084;8.872;2023-07-13T01:26:27;14.40;99.90
32187;DHT22;18686;53.084;8.872;2023-07-13T01:28:55;14.40;99.90
32187;DHT22;18686;53.084;8.872;2023-07-13T01:31:24;14.40;99.90
32187;DHT22;18686;53.084;8.872;2023-07-13T01:33:53;14.40;99.90
32187;DHT22;18686;53.084;8.872;2023-07-13T01:36:22;14.40;99.90
32187;DHT22;18686;53.084;8.872;2023-07-13T01:38:52;14.40;99.90
32187;DHT22;18686;53.084;8.872;2023-07-13T01:41:20;14.40;99.90
32187;DHT22;18686;53.084;8.872;2023-07-13T01:43:49;14.40;99.90
32187;DHT22;18686;53.084;8.872;2023-07-13T01:46:17;14.40;99.90
32187;DHT22;18686;53.084;8.872;2023-07-13T01:48:50;14.40;99.90
32187;DHT22;18686;53.084;8.872;2023-07-13T01:51:18;14.50;99.90
32187;DHT22;18686;53.084;8.872;2023-07-13T01:53:47;14.40;99.90
32187;DHT22;18686;53.084;8.872;2023-07-13T01:56:18;14.40;99.90
32187;DHT22;18686;53.084;8.872;2023-07-13T01:58:47;14.40;99.90
32187;DHT22;18686;53.084;8.872;2023-07-13T02:01:16;14.40;99.90
32187;DHT22;18686;53.084;8.872;2023-07-13T02:03:44;14.30;99.90
32187;DHT22;18686;53.084;8.872;2023-07-13T02:06:13;14.40;99.90
32187;DHT22;18686;53.084;8.872;2023-07-13T02:08:44;14.30;99.90
32187;DHT22;18686;53.084;8.872;2023-07-13T02:11:12;14.30;99.90
32187;DHT22;18686;53.084;8.872;2023-07-13T02:13:42;14.30;99.90
32187;DHT22;18686;53.084;8.872;2023-07-13T02:16:10;14.30;99.90
32187;DHT22;18686;53.084;8.872;2023-07-13T02:18:39;14.30;99.90
32187;DHT22;18686;53.084;8.872;2023-07-13T02:21:08;14.30;99.90
32187;DHT22;18686;53.084;8.872;2023-07-13T02:23:36;14.30;99.90
32187;DHT22;18686;53.084;8.872;2023-07-13T02:26:04;14.30;99.90
32187;DHT22;18686;53.084;8.872;2023-07-13T02:28:32;14.30;99.90
32187;DHT22;18686;53.084;8.872;2023-07-13T02:31:06;14.40;99.90
32187;DHT22;18686;53.084;8.872;2023-07-13T02:33:35;14.40;99.90
32187;DHT22;18686;53.084;8.872;2023-07-13T02:36:04;14.30;99.90
32187;DHT22;18686;53.084;8.872;2023-07-13T02:38:33;14.30;99.90
32187;DHT22;18686;53.084;8.872;2023-07-13T02:41:03;14.30;99.90
32187;DHT22;18686;53.084;8.872;2023-07-13T02:43:31;14.30;99.90
32187;DHT22;18686;53.084;8.872;2023-07-13T02:46:00;14.20;99.90
32187;DHT22;18686;53.084;8.872;2023-07-13T02:48:38;14.30;99.90
32187;DHT22;18686;53.084;8.872;2023-07-13T02:51:07;14.20;99.90
32187;DHT22;18686;53.084;8.872;2023-07-13T02:53:36;14.20;99.90
32187;DHT22;18686;53.084;8.872;2023-07-13T02:56:05;14.20;99.90
32187;DHT22;18686;53.084;8.872;2023-07-13T02:58:34;14.20;99.90
32187;DHT22;18686;53.084;8.872;2023-07-13T03:01:07;14.20;99.90
32187;DHT22;18686;53.084;8.872;2023-07-13T03:03:37;14.20;99.90
32187;DHT22;18686;53.084;8.872;2023-07-13T03:06:06;14.10;99.90
32187;DHT22;18686;53.084;8.872;2023-07-13T03:08:45;14.20;99.90
32187;DHT22;18686;53.084;8.872;2023-07-13T03:11:15;14.20;99.90
32187;DHT22;18686;53.084;8.872;2023-07-13T03:13:47;14.20;99.90
32187;DHT22;18686;53.084;8.872;2023-07-13T03:16:19;14.20;99.90
32187;DHT22;18686;53.084;8.872;2023-07-13T03:18:50;14.20;99.90
32187;DHT22;18686;53.084;8.872;2023-07-13T03:21:19;14.20;99.90
32187;DHT22;18686;53.084;8.872;2023-07-13T03:23:47;14.30;99.90
32187;DHT22;18686;53.084;8.872;2023-07-13T03:26:18;14.40;99.90
32187;DHT22;18686;53.084;8.872;2023-07-13T03:28:48;14.40;99.90
32187;DHT22;18686;53.084;8.872;2023-07-13T03:31:23;14.50;99.90
32187;DHT22;18686;53.084;8.872;2023-07-13T03:33:53;14.50;99.90
32187;DHT22;18686;53.084;8.872;2023-07-13T03:36:23;14.60;99.90
32187;DHT22;18686;53.084;8.872;2023-07-13T03:38:58;14.70;99.90
32187;DHT22;18686;53.084;8.872;2023-07-13T03:41:39;14.70;99.90
32187;DHT22;18686;53.084;8.872;2023-07-13T03:44:07;14.80;99.90
32187;DHT22;18686;53.084;8.872;2023-07-13T03:46:35;14.90;99.90
32187;DHT22;18686;53.084;8.872;2023-07-13T03:49:05;15.00;99.90
32187;DHT22;18686;53.084;8.872;2023-07-13T03:51:33;15.00;99.90
32187;DHT22;18686;53.084;8.872;2023-07-13T03:54:02;15.10;99.90
32187;DHT22;18686;53.084;8.872;2023-07-13T03:56:31;15.30;99.90
32187;DHT22;18686;53.084;8.872;2023-07-13T03:59:02;15.40;99.90
32187;DHT22;18686;53.084;8.872;2023-07-13T04:01:31;15.50;99.90
32187;DHT22;18686;53.084;8.872;2023-07-13T04:03:59;15.50;99.90
32187;DHT22;18686;53.084;8.872;2023-07-13T04:06:32;15.70;99.90
32187;DHT22;18686;53.084;8.872;2023-07-13T04:09:02;15.70;99.90
32187;DHT22;18686;53.084;8.872;2023-07-13T04:11:33;15.80;99.90
32187;DHT22;18686;53.084;8.872;2023-07-13T04:14:03;15.80;99.90
32187;DHT22;18686;53.084;8.872;2023-07-13T04:16:33;15.90;99.90
32187;DHT22;18686;53.084;8.872;2023-07-13T04:19:04;15.90;99.90
32187;DHT22;18686;53.084;8.872;2023-07-13T04:21:34;16.00;99.90
32187;DHT22;18686;53.084;8.872;2023-07-13T04:24:03;16.00;99.90
32187;DHT22;18686;53.084;8.872;2023-07-13T04:26:31;16.00;99.90
32187;DHT22;18686;53.084;8.872;2023-07-13T04:29:03;16.10;99.90
32187;DHT22;18686;53.084;8.872;2023-07-13T04:31:32;16.10;99.90
32187;DHT22;18686;53.084;8.872;2023-07-13T04:34:00;16.10;99.90
32187;DHT22;18686;53.084;8.872;2023-07-13T04:36:30;16.10;99.90
32187;DHT22;18686;53.084;8.872;2023-07-13T04:38:59;16.20;99.90
32187;DHT22;18686;53.084;8.872;2023-07-13T04:41:28;16.30;99.90
32187;DHT22;18686;53.084;8.872;2023-07-13T04:43:56;16.30;99.90
32187;DHT22;18686;53.084;8.872;2023-07-13T04:46:24;16.40;99.90
32187;DHT22;18686;53.084;8.872;2023-07-13T04:48:53;16.40;99.90
32187;DHT22;18686;53.084;8.872;2023-07-13T04:51:21;16.50;99.90
32187;DHT22;18686;53.084;8.872;2023-07-13T04:53:50;16.50;99.90
32187;DHT22;18686;53.084;8.872;2023-07-13T04:56:27;16.60;99.90
32187;DHT22;18686;53.084;8.872;2023-07-13T04:58:56;16.70;99.90
32187;DHT22;18686;53.084;8.872;2023-07-13T05:01:26;16.70;99.90
32187;DHT22;18686;53.084;8.872;2023-07-13T05:03:54;16.80;99.90
32187;DHT22;18686;53.084;8.872;2023-07-13T05:06:25;16.80;99.90
32187;DHT22;18686;53.084;8.872;2023-07-13T05:08:54;16.90;99.90
32187;DHT22;18686;53.084;8.872;2023-07-13T05:11:22;16.90;99.90
32187;DHT22;18686;53.084;8.872;2023-07-13T05:13:52;17.00;99.90
32187;DHT22;18686;53.084;8.872;2023-07-13T05:16:20;17.00;99.90
32187;DHT22;18686;53.084;8.872;2023-07-13T05:18:49;17.00;99.90
32187;DHT22;18686;53.084;8.872;2023-07-13T05:21:17;16.90;99.90
32187;DHT22;18686;53.084;8.872;2023-07-13T05:23:46;16.90;99.90
32187;DHT22;18686;53.084;8.872;2023-07-13T05:26:15;16.90;99.90
32187;DHT22;18686;53.084;8.872;2023-07-13T05:28:44;17.00;99.90
32187;DHT22;18686;53.084;8.872;2023-07-13T05:31:14;17.00;99.90
32187;DHT22;18686;53.084;8.872;2023-07-13T05:33:42;17.10;99.90
32187;DHT22;18686;53.084;8.872;2023-07-13T05:36:12;17.10;99.90
32187;DHT22;18686;53.084;8.872;2023-07-13T05:38:40;17.20;99.90
32187;DHT22;18686;53.084;8.872;2023-07-13T05:41:08;17.30;99.90
32187;DHT22;18686;53.084;8.872;2023-07-13T05:43:37;17.40;99.90
32187;DHT22;18686;53.084;8.872;2023-07-13T05:46:06;17.40;99.90
32187;DHT22;18686;53.084;8.872;2023-07-13T05:48:35;17.50;99.90
32187;DHT22;18686;53.084;8.872;2023-07-13T05:51:04;17.40;99.90
32187;DHT22;18686;53.084;8.872;2023-07-13T05:53:33;17.40;99.90
32187;DHT22;18686;53.084;8.872;2023-07-13T05:56:02;17.30;99.90
32187;DHT22;18686;53.084;8.872;2023-07-13T05:58:30;17.30;99.90
32187;DHT22;18686;53.084;8.872;2023-07-13T06:01:00;17.30;99.90
32187;DHT22;18686;53.084;8.872;2023-07-13T06:03:29;17.40;99.90
32187;DHT22;18686;53.084;8.872;2023-07-13T06:05:59;17.40;99.90
32187;DHT22;18686;53.084;8.872;2023-07-13T06:08:28;17.50;99.90
32187;DHT22;18686;53.084;8.872;2023-07-13T06:11:02;17.70;99.90
32187;DHT22;18686;53.084;8.872;2023-07-13T06:13:30;17.70;99.90
32187;DHT22;18686;53.084;8.872;2023-07-13T06:16:00;17.90;99.90
32187;DHT22;18686;53.084;8.872;2023-07-13T06:18:31;18.00;99.90
32187;DHT22;18686;53.084;8.872;2023-07-13T06:21:05;18.20;99.90
32187;DHT22;18686;53.084;8.872;2023-07-13T06:23:33;18.30;99.90
32187;DHT22;18686;53.084;8.872;2023-07-13T06:26:02;18.50;99.90
32187;DHT22;18686;53.084;8.872;2023-07-13T06:28:32;18.70;99.90
32187;DHT22;18686;53.084;8.872;2023-07-13T06:31:01;19.00;99.90
32187;DHT22;18686;53.084;8.872;2023-07-13T06:33:29;19.30;99.90
32187;DHT22;18686;53.084;8.872;2023-07-13T06:35:58;19.60;99.90
32187;DHT22;18686;53.084;8.872;2023-07-13T06:38:28;20.00;99.90
32187;DHT22;18686;53.084;8.872;2023-07-13T06:40:56;20.30;99.90
32187;DHT22;18686;53.084;8.872;2023-07-13T06:43:24;20.40;99.90
32187;DHT22;18686;53.084;8.872;2023-07-13T06:45:55;20.40;99.90
32187;DHT22;18686;53.084;8.872;2023-07-13T06:48:24;20.40;99.90
32187;DHT22;18686;53.084;8.872;2023-07-13T06:50:52;20.50;99.90
32187;DHT22;18686;53.084;8.872;2023-07-13T06:53:21;20.70;99.90
32187;DHT22;18686;53.084;8.872;2023-07-13T06:55:51;20.80;99.90
32187;DHT22;18686;53.084;8.872;2023-07-13T06:58:19;20.90;99.90
32187;DHT22;18686;53.084;8.872;2023-07-13T07:00:50;20.90;99.90
32187;DHT22;18686;53.084;8.872;2023-07-13T07:03:21;20.90;99.90
32187;DHT22;18686;53.084;8.872;2023-07-13T07:05:50;20.90;99.90
32187;DHT22;18686;53.084;8.872;2023-07-13T07:08:18;20.80;99.90
32187;DHT22;18686;53.084;8.872;2023-07-13T07:10:47;20.80;99.90
32187;DHT22;18686;53.084;8.872;2023-07-13T07:13:22;20.80;99.90
32187;DHT22;18686;53.084;8.872;2023-07-13T07:15:51;20.70;99.90
32187;DHT22;18686;53.084;8.872;2023-07-13T07:18:19;20.60;99.90
32187;DHT22;18686;53.084;8.872;2023-07-13T07:20:49;20.80;99.90
32187;DHT22;18686;53.084;8.872;2023-07-13T07:23:17;20.90;99.90
32187;DHT22;18686;53.084;8.872;2023-07-13T07:25:46;21.00;99.90
32187;DHT22;18686;53.084;8.872;2023-07-13T07:28:16;21.30;99.90
32187;DHT22;18686;53.084;8.872;2023-07-13T07:30:52;21.50;99.90
32187;DHT22;18686;53.084;8.872;2023-07-13T07:33:41;21.70;99.90
32187;DHT22;18686;53.084;8.872;2023-07-13T07:36:10;21.90;99.90
32187;DHT22;18686;53.084;8.872;2023-07-13T07:38:42;22.30;99.70
32187;DHT22;18686;53.084;8.872;2023-07-13T07:41:10;22.60;98.00
32187;DHT22;18686;53.084;8.872;2023-07-13T07:43:41;22.80;97.20
32187;DHT22;18686;53.084;8.872;2023-07-13T07:46:11;23.00;96.60
32187;DHT22;18686;53.084;8.872;2023-07-13T07:48:40;23.30;96.40
32187;DHT22;18686;53.084;8.872;2023-07-13T07:51:09;23.50;94.10
32187;DHT22;18686;53.084;8.872;2023-07-13T07:53:37;23.60;94.20
32187;DHT22;18686;53.084;8.872;2023-07-13T07:56:05;23.60;93.50
32187;DHT22;18686;53.084;8.872;2023-07-13T07:58:54;23.70;91.80
32187;DHT22;18686;53.084;8.872;2023-07-13T08:01:26;24.00;92.50
32187;DHT22;18686;53.084;8.872;2023-07-13T08:03:58;24.40;91.90
32187;DHT22;18686;53.084;8.872;2023-07-13T08:06:29;24.60;90.50
32187;DHT22;18686;53.084;8.872;2023-07-13T08:09:03;24.70;87.50
32187;DHT22;18686;53.084;8.872;2023-07-13T08:11:31;24.80;83.80
32187;DHT22;18686;53.084;8.872;2023-07-13T08:14:03;24.90;83.30
32187;DHT22;18686;53.084;8.872;2023-07-13T08:16:32;24.90;81.50
32187;DHT22;18686;53.084;8.872;2023-07-13T08:19:01;24.90;80.20
32187;DHT22;18686;53.084;8.872;2023-07-13T08:21:29;25.00;77.60
32187;DHT22;18686;53.084;8.872;2023-07-13T08:23:57;25.40;77.50
32187;DHT22;18686;53.084;8.872;2023-07-13T08:26:26;25.80;73.90
32187;DHT22;18686;53.084;8.872;2023-07-13T08:28:54;25.80;72.40
32187;DHT22;18686;53.084;8.872;2023-07-13T08:31:23;25.80;71.30
32187;DHT22;18686;53.084;8.872;2023-07-13T08:33:52;26.00;71.10
32187;DHT22;18686;53.084;8.872;2023-07-13T08:36:21;26.30;69.80
32187;DHT22;18686;53.084;8.872;2023-07-13T08:38:49;26.40;67.50
32187;DHT22;18686;53.084;8.872;2023-07-13T08:41:18;26.60;66.60
32187;DHT22;18686;53.084;8.872;2023-07-13T08:43:49;26.90;65.00
32187;DHT22;18686;53.084;8.872;2023-07-13T08:46:24;27.10;64.00
32187;DHT22;18686;53.084;8.872;2023-07-13T08:48:58;27.20;61.90
32187;DHT22;18686;53.084;8.872;2023-07-13T08:51:37;27.30;60.70
32187;DHT22;18686;53.084;8.872;2023-07-13T08:54:15;27.30;59.90
32187;DHT22;18686;53.084;8.872;2023-07-13T08:56:45;27.40;60.40
32187;DHT22;18686;53.084;8.872;2023-07-13T08:59:16;27.40;60.60
32187;DHT22;18686;53.084;8.872;2023-07-13T09:02:26;27.50;60.20
32187;DHT22;18686;53.084;8.872;2023-07-13T09:05:01;27.50;57.30
32187;DHT22;18686;53.084;8.872;2023-07-13T09:07:41;27.60;57.00
32187;DHT22;18686;53.084;8.872;2023-07-13T09:10:29;27.80;56.90
32187;DHT22;18686;53.084;8.872;2023-07-13T09:13:20;28.00;55.90
32187;DHT22;18686;53.084;8.872;2023-07-13T09:16:41;28.30;55.00
32187;DHT22;18686;53.084;8.872;2023-07-13T09:19:16;28.80;53.90
32187;DHT22;18686;53.084;8.872;2023-07-13T09:21:46;29.00;53.00
32187;DHT22;18686;53.084;8.872;2023-07-13T09:24:28;29.10;50.50
32187;DHT22;18686;53.084;8.872;2023-07-13T09:30:36;29.10;50.10
32187;DHT22;18686;53.084;8.872;2023-07-13T09:34:34;29.40;49.20
32187;DHT22;18686;53.084;8.872;2023-07-13T09:41:08;29.80;48.10
32187;DHT22;18686;53.084;8.872;2023-07-13T09:44:00;29.80;47.20
32187;DHT22;18686;53.084;8.872;2023-07-13T09:46:28;30.10;46.30
32187;DHT22;18686;53.084;8.872;2023-07-13T09:48:57;30.30;46.20
32187;DHT22;18686;53.084;8.872;2023-07-13T09:51:25;30.70;44.30
32187;DHT22;18686;53.084;8.872;2023-07-13T09:53:54;30.90;43.30
32187;DHT22;18686;53.084;8.872;2023-07-13T09:56:26;30.50;43.20
32187;DHT22;18686;53.084;8.872;2023-07-13T09:58:54;30.20;44.20
32187;DHT22;18686;53.084;8.872;2023-07-13T10:01:35;30.20;44.40
32187;DHT22;18686;53.084;8.872;2023-07-13T10:04:11;30.90;44.80
32187;DHT22;18686;53.084;8.872;2023-07-13T10:06:40;31.40;43.30
32187;DHT22;18686;53.084;8.872;2023-07-13T10:09:13;31.50;42.50
32187;DHT22;18686;53.084;8.872;2023-07-13T10:11:44;31.30;42.70
32187;DHT22;18686;53.084;8.872;2023-07-13T10:14:15;31.40;42.90
32187;DHT22;18686;53.084;8.872;2023-07-13T10:16:45;32.00;41.40
32187;DHT22;18686;53.084;8.872;2023-07-13T10:19:17;31.70;41.10
32187;DHT22;18686;53.084;8.872;2023-07-13T10:21:52;31.30;41.60
32187;DHT22;18686;53.084;8.872;2023-07-13T10:24:23;30.60;41.50
32187;DHT22;18686;53.084;8.872;2023-07-13T10:26:58;30.00;43.10
32187;DHT22;18686;53.084;8.872;2023-07-13T10:29:36;30.00;43.30
32187;DHT22;18686;53.084;8.872;2023-07-13T10:32:09;30.50;43.00
32187;DHT22;18686;53.084;8.872;2023-07-13T10:34:39;31.00;41.60
32187;DHT22;18686;53.084;8.872;2023-07-13T10:37:16;30.70;41.00
32187;DHT22;18686;53.084;8.872;2023-07-13T10:39:48;30.30;41.80
32187;DHT22;18686;53.084;8.872;2023-07-13T10:42:25;29.70;42.90
32187;DHT22;18686;53.084;8.872;2023-07-13T10:44:55;29.20;43.00
32187;DHT22;18686;53.084;8.872;2023-07-13T10:47:24;28.70;44.30
32187;DHT22;18686;53.084;8.872;2023-07-13T10:49:56;28.30;45.20
32187;DHT22;18686;53.084;8.872;2023-07-13T10:52:42;27.80;46.60
32187;DHT22;18686;53.084;8.872;2023-07-13T10:55:36;27.10;48.60
32187;DHT22;18686;53.084;8.872;2023-07-13T10:58:21;26.50;50.50
32187;DHT22;18686;53.084;8.872;2023-07-13T11:00:57;26.20;50.80
32187;DHT22;18686;53.084;8.872;2023-07-13T11:03:28;26.60;51.70
32187;DHT22;18686;53.084;8.872;2023-07-13T11:06:08;28.30;50.30
32187;DHT22;18686;53.084;8.872;2023-07-13T11:08:39;29.90;47.30
32187;DHT22;18686;53.084;8.872;2023-07-13T11:11:35;30.20;45.20
32187;DHT22;18686;53.084;8.872;2023-07-13T11:14:26;29.70;45.60
32187;DHT22;18686;53.084;8.872;2023-07-13T11:16:55;28.90;45.90
32187;DHT22;18686;53.084;8.872;2023-07-13T11:19:37;28.10;46.40
32187;DHT22;18686;53.084;8.872;2023-07-13T11:22:21;27.20;48.40
32187;DHT22;18686;53.084;8.872;2023-07-13T11:24:59;26.40;50.90
32187;DHT22;18686;53.084;8.872;2023-07-13T11:27:35;25.70;53.80
32187;DHT22;18686;53.084;8.872;2023-07-13T11:30:23;24.90;58.40
32187;DHT22;18686;53.084;8.872;2023-07-13T11:33:10;24.30;62.10
32187;DHT22;18686;53.084;8.872;2023-07-13T11:35:50;23.60;68.00
32187;DHT22;18686;53.084;8.872;2023-07-13T11:38:21;23.10;70.60
32187;DHT22;18686;53.084;8.872;2023-07-13T11:40:53;22.70;71.30
32187;DHT22;18686;53.084;8.872;2023-07-13T11:43:23;22.30;72.10
32187;DHT22;18686;53.084;8.872;2023-07-13T11:45:54;21.90;72.50
32187;DHT22;18686;53.084;8.872;2023-07-13T11:48:25;21.60;76.00
32187;DHT22;18686;53.084;8.872;2023-07-13T11:50:59;21.40;75.50
32187;DHT22;18686;53.084;8.872;2023-07-13T11:53:35;21.20;77.00
32187;DHT22;18686;53.084;8.872;2023-07-13T11:56:05;21.00;84.20
32187;DHT22;18686;53.084;8.872;2023-07-13T11:58:34;20.60;84.50
32187;DHT22;18686;53.084;8.872;2023-07-13T12:01:04;20.40;90.50
32187;DHT22;18686;53.084;8.872;2023-07-13T12:03:34;20.20;92.00
32187;DHT22;18686;53.084;8.872;2023-07-13T12:06:04;20.00;92.50
32187;DHT22;18686;53.084;8.872;2023-07-13T12:08:38;19.70;93.20
32187;DHT22;18686;53.084;8.872;2023-07-13T12:11:15;19.50;93.90
32187;DHT22;18686;53.084;8.872;2023-07-13T12:13:45;19.30;96.20
32187;DHT22;18686;53.084;8.872;2023-07-13T12:16:17;19.10;99.00
32187;DHT22;18686;53.084;8.872;2023-07-13T12:18:52;18.80;99.90
32187;DHT22;18686;53.084;8.872;2023-07-13T12:21:27;18.50;99.90
32187;DHT22;18686;53.084;8.872;2023-07-13T12:23:57;18.00;99.90
32187;DHT22;18686;53.084;8.872;2023-07-13T12:26:26;17.70;99.90
32187;DHT22;18686;53.084;8.872;2023-07-13T12:28:55;17.40;99.90
32187;DHT22;18686;53.084;8.872;2023-07-13T12:31:30;17.20;99.90
32187;DHT22;18686;53.084;8.872;2023-07-13T12:34:01;17.00;99.90
32187;DHT22;18686;53.084;8.872;2023-07-13T12:36:32;16.90;99.90
32187;DHT22;18686;53.084;8.872;2023-07-13T12:39:10;16.80;99.90
32187;DHT22;18686;53.084;8.872;2023-07-13T12:41:40;16.80;99.90
32187;DHT22;18686;53.084;8.872;2023-07-13T12:44:14;16.70;99.90
32187;DHT22;18686;53.084;8.872;2023-07-13T12:46:56;16.70;99.90
32187;DHT22;18686;53.084;8.872;2023-07-13T12:49:29;16.70;99.90
32187;DHT22;18686;53.084;8.872;2023-07-13T12:51:59;16.70;99.90
32187;DHT22;18686;53.084;8.872;2023-07-13T12:54:28;16.70;99.90
32187;DHT22;18686;53.084;8.872;2023-07-13T12:56:58;16.70;99.90
32187;DHT22;18686;53.084;8.872;2023-07-13T12:59:31;17.00;99.90
32187;DHT22;18686;53.084;8.872;2023-07-13T13:02:22;17.20;99.90
32187;DHT22;18686;53.084;8.872;2023-07-13T13:04:51;17.50;99.90
32187;DHT22;18686;53.084;8.872;2023-07-13T13:07:19;17.80;99.90
32187;DHT22;18686;53.084;8.872;2023-07-13T13:09:47;18.30;99.90
32187;DHT22;18686;53.084;8.872;2023-07-13T13:12:16;18.70;99.90
32187;DHT22;18686;53.084;8.872;2023-07-13T13:14:45;19.50;99.90
32187;DHT22;18686;53.084;8.872;2023-07-13T13:17:20;20.90;99.90
32187;DHT22;18686;53.084;8.872;2023-07-13T13:19:50;22.20;99.90
32187;DHT22;18686;53.084;8.872;2023-07-13T13:22:20;24.20;99.90
32187;DHT22;18686;53.084;8.872;2023-07-13T13:24:48;26.40;99.90
32187;DHT22;18686;53.084;8.872;2023-07-13T13:27:18;28.40;99.90
32187;DHT22;18686;53.084;8.872;2023-07-13T13:29:47;29.40;99.90
32187;DHT22;18686;53.084;8.872;2023-07-13T13:32:18;29.60;91.80
32187;DHT22;18686;53.084;8.872;2023-07-13T13:34:47;29.80;93.00
32187;DHT22;18686;53.084;8.872;2023-07-13T13:37:20;30.10;98.40
32187;DHT22;18686;53.084;8.872;2023-07-13T13:39:50;30.80;90.90
32187;DHT22;18686;53.084;8.872;2023-07-13T13:42:34;31.40;91.30
32187;DHT22;18686;53.084;8.872;2023-07-13T13:45:03;31.30;88.10
32187;DHT22;18686;53.084;8.872;2023-07-13T13:47:34;30.80;83.10
32187;DHT22;18686;53.084;8.872;2023-07-13T13:50:12;30.00;90.50
32187;DHT22;18686;53.084;8.872;2023-07-13T13:52:42;29.20;92.30
32187;DHT22;18686;53.084;8.872;2023-07-13T13:55:14;28.40;93.00
32187;DHT22;18686;53.084;8.872;2023-07-13T13:57:43;27.50;88.80
32187;DHT22;18686;53.084;8.872;2023-07-13T14:00:12;26.70;87.80
32187;DHT22;18686;53.084;8.872;2023-07-13T14:02:47;25.90;90.00
32187;DHT22;18686;53.084;8.872;2023-07-13T14:05:25;25.20;95.60
32187;DHT22;18686;53.084;8.872;2023-07-13T14:07:54;24.80;97.90
32187;DHT22;18686;53.084;8.872;2023-07-13T14:10:23;24.50;98.50
32187;DHT22;18686;53.084;8.872;2023-07-13T14:12:53;25.00;94.10
32187;DHT22;18686;53.084;8.872;2023-07-13T14:15:24;26.00;94.10
32187;DHT22;18686;53.084;8.872;2023-07-13T14:17:55;27.60;90.30
32187;DHT22;18686;53.084;8.872;2023-07-13T14:20:25;29.30;89.60
32187;DHT22;18686;53.084;8.872;2023-07-13T14:22:54;30.20;72.00
32187;DHT22;18686;53.084;8.872;2023-07-13T14:25:22;30.50;68.20
32187;DHT22;18686;53.084;8.872;2023-07-13T14:27:55;30.70;63.90
32187;DHT22;18686;53.084;8.872;2023-07-13T14:30:26;31.90;61.00
32187;DHT22;18686;53.084;8.872;2023-07-13T14:32:55;33.00;50.30
32187;DHT22;18686;53.084;8.872;2023-07-13T14:35:24;32.70;49.50
32187;DHT22;18686;53.084;8.872;2023-07-13T14:37:52;33.10;45.80
32187;DHT22;18686;53.084;8.872;2023-07-13T14:40:25;33.60;45.20
32187;DHT22;18686;53.084;8.872;2023-07-13T14:42:54;33.80;45.50
32187;DHT22;18686;53.084;8.872;2023-07-13T14:45:23;32.90;44.00
32187;DHT22;18686;53.084;8.872;2023-07-13T14:47:51;31.90;45.10
32187;DHT22;18686;53.084;8.872;2023-07-13T14:50:26;31.20;46.20
32187;DHT22;18686;53.084;8.872;2023-07-13T14:52:56;30.60;46.80
32187;DHT22;18686;53.084;8.872;2023-07-13T14:55:24;29.60;47.90
32187;DHT22;18686;53.084;8.872;2023-07-13T14:57:54;28.90;48.60
32187;DHT22;18686;53.084;8.872;2023-07-13T15:00:24;28.10;51.40
32187;DHT22;18686;53.084;8.872;2023-07-13T15:02:54;27.50;52.10
32187;DHT22;18686;53.084;8.872;2023-07-13T15:05:27;27.00;53.40
32187;DHT22;18686;53.084;8.872;2023-07-13T15:07:58;26.60;53.80
32187;DHT22;18686;53.084;8.872;2023-07-13T15:10:28;26.10;55.10
32187;DHT22;18686;53.084;8.872;2023-07-13T15:13:00;25.60;56.90
32187;DHT22;18686;53.084;8.872;2023-07-13T15:15:32;25.00;58.70
32187;DHT22;18686;53.084;8.872;2023-07-13T15:18:01;24.40;60.90
32187;DHT22;18686;53.084;8.872;2023-07-13T15:20:33;23.90;66.70
32187;DHT22;18686;53.084;8.872;2023-07-13T15:23:02;23.30;82.00
32187;DHT22;18686;53.084;8.872;2023-07-13T15:25:32;22.50;90.00
32187;DHT22;18686;53.084;8.872;2023-07-13T15:28:01;21.80;95.40
32187;DHT22;18686;53.084;8.872;2023-07-13T15:30:31;21.00;97.70
32187;DHT22;18686;53.084;8.872;2023-07-13T15:33:11;20.40;99.90
32187;DHT22;18686;53.084;8.872;2023-07-13T15:35:41;19.80;99.90
32187;DHT22;18686;53.084;8.872;2023-07-13T15:38:14;19.40;99.90
32187;DHT22;18686;53.084;8.872;2023-07-13T15:40:43;19.00;99.90
32187;DHT22;18686;53.084;8.872;2023-07-13T15:43:12;18.70;99.90
32187;DHT22;18686;53.084;8.872;2023-07-13T15:45:41;18.30;99.90
32187;DHT22;18686;53.084;8.872;2023-07-13T15:48:13;18.10;99.90
32187;DHT22;18686;53.084;8.872;2023-07-13T15:50:47;17.90;99.90
32187;DHT22;18686;53.084;8.872;2023-07-13T15:53:19;17.80;99.90
32187;DHT22;18686;53.084;8.872;2023-07-13T15:55:48;17.70;99.90
32187;DHT22;18686;53.084;8.872;2023-07-13T15:58:18;17.60;99.90
32187;DHT22;18686;53.084;8.872;2023-07-13T16:00:48;17.50;99.90
32187;DHT22;18686;53.084;8.872;2023-07-13T16:03:19;17.40;99.90
32187;DHT22;18686;53.084;8.872;2023-07-13T16:05:51;17.30;99.90